Time;durP1;ratioP1;P1;durP2;ratioP2;P2;SDS_P1;SDS_P2;PMS_P1;PMS_P2;Temp;Humidity;BMP_temperature;BMP_pressure;BME280_temperature;BME280_humidity;BME280_pressure;Samples;Min_cycle;Max_cycle;Signal;HPM_P1;HPM_P2
2022/11/27 00:01:41;;;;;;;94.32;63.90;;;8.80;99.90;;;;;;5014998;28;20018;-65
2022/11/27 00:04:08;;;;;;;87.38;58.92;;;8.80;99.90;;;;;;5015291;28;20065;-68
2022/11/27 00:06:34;;;;;;;102.30;74.93;;;8.70;99.90;;;;;;5015103;28;20109;-68
2022/11/27 00:09:02;;;;;;;96.57;69.80;;;8.60;99.90;;;;;;5015115;28;20022;-63
2022/11/27 00:11:29;;;;;;;83.30;60.65;;;8.60;99.90;;;;;;5014812;28;20026;-69
2022/11/27 00:13:56;;;;;;;70.30;52.17;;;8.50;99.90;;;;;;5015019;28;20076;-66
2022/11/27 00:16:23;;;;;;;71.22;50.58;;;8.50;99.90;;;;;;5014860;28;20052;-63
2022/11/27 00:18:49;;;;;;;69.20;51.45;;;8.60;99.90;;;;;;5014871;28;20073;-68
2022/11/27 00:21:16;;;;;;;63.30;49.53;;;8.60;99.90;;;;;;5014683;28;20053;-67
2022/11/27 00:23:42;;;;;;;74.97;52.67;;;8.60;99.90;;;;;;5014762;28;20022;-64
2022/11/27 00:26:09;;;;;;;65.65;48.17;;;8.60;99.90;;;;;;5014522;28;20029;-65
2022/11/27 00:28:35;;;;;;;60.15;44.90;;;8.70;99.90;;;;;;5014803;28;20488;-65
2022/11/27 00:31:25;;;;;;;62.83;46.60;;;8.70;99.90;;;;;;5014628;28;20480;-65
2022/11/27 00:33:53;;;;;;;66.47;48.05;;;8.80;99.90;;;;;;5014512;28;20120;-69
2022/11/27 00:36:19;;;;;;;64.43;47.35;;;8.80;99.90;;;;;;5014548;28;20065;-68
2022/11/27 00:38:44;;;;;;;58.08;42.35;;;8.80;99.90;;;;;;5014569;28;20049;-66
2022/11/27 00:41:20;;;;;;;51.92;38.85;;;8.80;99.90;;;;;;5014726;28;20377;-70
2022/11/27 00:43:46;;;;;;;59.30;42.88;;;8.80;99.90;;;;;;5014389;28;20464;-61
2022/11/27 00:46:13;;;;;;;46.05;34.85;;;8.80;99.90;;;;;;5014435;28;20022;-65
2022/11/27 00:48:39;;;;;;;57.38;39.92;;;8.80;99.90;;;;;;5014474;28;20511;-64
2022/11/27 00:51:07;;;;;;;62.85;44.40;;;8.80;99.90;;;;;;5014232;28;20018;-69
2022/11/27 00:53:33;;;;;;;47.47;35.45;;;8.80;99.90;;;;;;5014121;28;20022;-67
2022/11/27 00:55:59;;;;;;;43.45;34.25;;;8.80;99.90;;;;;;5014261;28;20033;-71
2022/11/27 00:58:26;;;;;;;56.35;40.33;;;8.80;99.90;;;;;;5014052;28;20018;-66
2022/11/27 01:00:56;;;;;;;47.00;35.03;;;8.80;99.90;;;;;;5014244;28;20029;-63
2022/11/27 01:03:22;;;;;;;43.15;32.53;;;8.80;99.90;;;;;;5014377;28;20057;-66
2022/11/27 01:05:48;;;;;;;53.17;40.53;;;8.80;99.90;;;;;;5014063;28;20024;-69
2022/11/27 01:08:13;;;;;;;60.13;43.75;;;8.80;99.90;;;;;;5013902;28;20026;-68
2022/11/27 01:10:39;;;;;;;67.03;45.83;;;8.80;99.90;;;;;;5014289;28;20464;-68
2022/11/27 01:13:04;;;;;;;64.38;45.38;;;8.70;99.90;;;;;;5013764;28;20515;-67
2022/11/27 01:15:30;;;;;;;53.80;37.90;;;8.70;99.90;;;;;;5014123;28;20109;-65
2022/11/27 01:17:56;;;;;;;43.15;32.25;;;8.60;99.90;;;;;;5013849;28;20097;-64
2022/11/27 01:20:21;;;;;;;42.17;32.35;;;8.60;99.90;;;;;;5013733;28;20084;-63
2022/11/27 01:22:47;;;;;;;43.28;34.72;;;8.60;99.90;;;;;;5013848;28;20061;-69
2022/11/27 01:25:13;;;;;;;48.40;37.40;;;8.60;99.90;;;;;;5013807;28;20022;-66
2022/11/27 01:27:38;;;;;;;53.90;40.08;;;8.60;99.90;;;;;;5013717;28;20052;-68
2022/11/27 01:30:05;;;;;;;42.13;33.90;;;8.60;99.90;;;;;;5013596;28;20022;-66
2022/11/27 01:32:30;;;;;;;44.35;32.50;;;8.60;99.90;;;;;;5013709;28;20112;-63
2022/11/27 01:34:56;;;;;;;38.67;30.90;;;8.60;99.90;;;;;;5013779;28;20546;-65
2022/11/27 01:37:21;;;;;;;43.00;31.60;;;8.60;99.90;;;;;;5013331;28;20018;-65
2022/11/27 01:39:47;;;;;;;45.97;35.47;;;8.60;99.90;;;;;;5013589;28;20064;-62
2022/11/27 01:42:13;;;;;;;43.72;34.47;;;8.60;99.90;;;;;;5013702;28;20030;-67
2022/11/27 01:44:48;;;;;;;38.90;32.38;;;8.50;99.90;;;;;;5013264;28;20053;-62
2022/11/27 01:47:23;;;;;;;44.40;34.65;;;8.50;99.90;;;;;;5013461;28;20050;-64
2022/11/27 01:49:53;;;;;;;40.83;32.20;;;8.60;99.90;;;;;;5013669;28;20056;-68
2022/11/27 01:52:32;;;;;;;44.40;34.50;;;8.50;99.90;;;;;;5013296;28;20076;-67
2022/11/27 01:55:17;;;;;;;43.40;33.83;;;8.50;99.90;;;;;;5013428;28;20026;-68
2022/11/27 01:57:50;;;;;;;45.30;36.28;;;8.50;99.90;;;;;;5013460;28;20037;-66
2022/11/27 02:00:17;;;;;;;58.40;43.08;;;8.50;99.90;;;;;;5013433;28;20487;-70
2022/11/27 02:02:43;;;;;;;60.72;45.80;;;8.50;99.90;;;;;;5013292;28;20104;-67
2022/11/27 02:05:13;;;;;;;65.47;47.80;;;8.50;99.90;;;;;;5013230;28;20057;-69
2022/11/27 02:07:39;;;;;;;49.85;39.05;;;8.50;99.90;;;;;;5012193;28;20380;-66
2022/11/27 02:10:06;;;;;;;59.97;43.85;;;8.50;99.90;;;;;;5013530;28;20028;-65
2022/11/27 02:12:59;;;;;;;50.05;38.38;;;8.60;99.90;;;;;;5013344;28;20122;-71
2022/11/27 02:15:46;;;;;;;49.63;38.28;;;8.60;99.90;;;;;;5013288;28;20033;-69
2022/11/27 02:18:41;;;;;;;57.60;40.55;;;8.60;99.90;;;;;;5013340;28;20040;-68
2022/11/27 02:21:45;;;;;;;53.28;38.50;;;8.70;99.90;;;;;;5012932;28;20381;-63
2022/11/27 02:24:44;;;;;;;46.90;35.92;;;8.70;99.90;;;;;;5012463;28;20034;-64
2022/11/27 02:27:36;;;;;;;53.05;39.13;;;8.70;99.90;;;;;;5013315;28;20100;-64
2022/11/27 02:30:04;;;;;;;60.88;43.15;;;8.70;99.90;;;;;;5012331;28;20034;-67
2022/11/27 02:32:42;;;;;;;51.47;39.38;;;8.60;99.90;;;;;;5013118;28;20431;-65
2022/11/27 02:35:22;;;;;;;58.03;42.15;;;8.50;99.90;;;;;;5012836;28;20084;-67
2022/11/27 02:37:55;;;;;;;50.15;39.58;;;8.40;99.90;;;;;;5013194;28;20480;-61
2022/11/27 02:40:37;;;;;;;45.75;34.20;;;8.30;99.90;;;;;;5013069;28;20022;-63
2022/11/27 02:43:27;;;;;;;48.03;36.17;;;8.40;99.90;;;;;;5013179;28;20030;-64
2022/11/27 02:45:54;;;;;;;52.45;39.28;;;8.40;99.90;;;;;;5012904;28;20511;-66
2022/11/27 02:48:25;;;;;;;51.70;36.85;;;8.50;99.90;;;;;;5012937;28;20029;-61
2022/11/27 02:50:52;;;;;;;55.47;37.42;;;8.50;99.90;;;;;;5012832;28;20029;-68
2022/11/27 02:53:25;;;;;;;41.53;31.33;;;8.50;99.90;;;;;;5012861;28;20038;-65
2022/11/27 02:55:52;;;;;;;46.28;32.55;;;8.50;99.90;;;;;;5013076;28;20041;-65
2022/11/27 02:58:22;;;;;;;39.55;30.17;;;8.50;99.90;;;;;;5014738;28;20037;-70
2022/11/27 03:00:49;;;;;;;34.28;28.30;;;8.60;99.90;;;;;;5016429;28;20524;-67
2022/11/27 03:03:21;;;;;;;34.95;27.13;;;8.60;99.90;;;;;;5016158;28;20030;-68
2022/11/27 03:05:51;;;;;;;34.88;27.33;;;8.60;99.90;;;;;;5016233;28;20109;-64
2022/11/27 03:08:41;;;;;;;35.28;27.38;;;8.60;99.90;;;;;;5016253;28;20061;-65
2022/11/27 03:11:10;;;;;;;32.03;25.05;;;8.70;99.90;;;;;;5016396;28;20037;-67
2022/11/27 03:13:40;;;;;;;33.90;26.00;;;8.70;99.90;;;;;;5016111;28;20116;-62
2022/11/27 03:16:25;;;;;;;34.78;26.60;;;8.70;99.90;;;;;;5016140;28;20018;-70
2022/11/27 03:19:24;;;;;;;32.10;25.77;;;8.80;99.90;;;;;;5016032;28;20029;-67
2022/11/27 03:21:57;;;;;;;35.70;26.08;;;8.80;99.90;;;;;;5016141;28;20113;-67
2022/11/27 03:24:23;;;;;;;39.47;26.85;;;8.80;99.90;;;;;;5016059;28;20022;-61
2022/11/27 03:26:49;;;;;;;37.08;27.42;;;8.80;99.90;;;;;;5015877;28;20022;-67
2022/11/27 03:29:33;;;;;;;28.92;23.38;;;8.80;99.90;;;;;;5015897;28;20029;-68
2022/11/27 03:32:00;;;;;;;30.08;23.52;;;8.80;99.90;;;;;;5015728;28;20034;-66
2022/11/27 03:34:26;;;;;;;28.55;23.17;;;8.80;99.90;;;;;;5015711;28;20435;-63
2022/11/27 03:36:52;;;;;;;34.45;27.48;;;8.70;99.90;;;;;;5015760;28;20133;-64
2022/11/27 03:39:19;;;;;;;34.45;25.65;;;8.80;99.90;;;;;;5015639;28;20061;-64
2022/11/27 03:42:19;;;;;;;46.05;32.78;;;8.80;99.90;;;;;;5015550;28;20022;-67
2022/11/27 03:45:03;;;;;;;39.85;30.85;;;8.80;99.90;;;;;;5015097;28;20038;-67
2022/11/27 03:47:47;;;;;;;;;;;8.80;99.90;;;;;;5015814;28;20388;-65
2022/11/27 03:50:28;;;;;;;54.13;37.95;;;8.90;99.90;;;;;;5015576;28;19933;-64
2022/11/27 03:53:27;;;;;;;70.20;48.22;;;8.80;99.90;;;;;;5015312;28;20037;-71
2022/11/27 03:56:37;;;;;;;76.43;52.65;;;8.80;99.90;;;;;;5014978;28;20034;-66
2022/11/27 03:59:15;;;;;;;85.18;58.63;;;8.70;99.90;;;;;;5013382;28;20022;-70
2022/11/27 04:01:41;;;;;;;66.88;48.95;;;8.70;99.90;;;;;;5012868;28;20542;-66
2022/11/27 04:04:06;;;;;;;59.10;44.10;;;8.60;99.90;;;;;;5014352;28;20034;-68
2022/11/27 04:06:32;;;;;;;55.83;42.03;;;8.70;99.90;;;;;;5015220;28;20071;-68
2022/11/27 04:08:58;;;;;;;54.33;39.63;;;8.70;99.90;;;;;;5014754;28;20111;-66
2022/11/27 04:11:23;;;;;;;53.25;38.67;;;8.70;99.90;;;;;;5015030;28;20029;-64
2022/11/27 04:13:51;;;;;;;70.63;51.20;;;8.80;99.90;;;;;;5015085;28;20037;-67
2022/11/27 04:16:17;;;;;;;74.05;55.53;;;8.80;99.90;;;;;;5014995;28;20112;-64
2022/11/27 04:18:42;;;;;;;84.95;61.03;;;8.70;99.90;;;;;;5015349;28;20376;-64
2022/11/27 04:21:09;;;;;;;87.78;62.22;;;8.60;99.90;;;;;;5014799;28;20049;-67
2022/11/27 04:23:36;;;;;;;71.90;52.45;;;8.50;99.90;;;;;;5015042;28;20025;-65
2022/11/27 04:26:02;;;;;;;67.15;50.63;;;8.50;99.90;;;;;;5014890;28;20133;-67
2022/11/27 04:28:28;;;;;;;67.97;48.67;;;8.50;99.90;;;;;;5014774;28;20595;-66
2022/11/27 04:30:53;;;;;;;49.92;39.03;;;8.50;99.90;;;;;;5014757;28;20082;-62
2022/11/27 04:33:20;;;;;;;56.85;42.80;;;8.50;99.90;;;;;;5014534;28;20061;-65
2022/11/27 04:35:45;;;;;;;56.05;40.47;;;8.60;99.90;;;;;;5014760;28;20026;-65
2022/11/27 04:38:11;;;;;;;66.07;43.90;;;8.70;99.90;;;;;;5014685;28;20076;-65
2022/11/27 04:40:37;;;;;;;62.97;44.78;;;8.70;99.90;;;;;;5014716;28;20408;-66
2022/11/27 04:43:03;;;;;;;59.67;43.75;;;8.70;99.90;;;;;;5014658;28;20117;-68
2022/11/27 04:45:28;;;;;;;52.25;39.25;;;8.80;99.90;;;;;;5014338;28;20045;-68
2022/11/27 04:47:54;;;;;;;52.53;38.55;;;8.80;99.90;;;;;;5014331;28;20021;-65
2022/11/27 04:50:19;;;;;;;48.08;38.45;;;8.80;99.90;;;;;;5014494;28;20037;-67
2022/11/27 04:52:45;;;;;;;46.72;37.03;;;8.80;99.90;;;;;;5014474;28;20041;-65
2022/11/27 04:55:11;;;;;;;69.47;49.25;;;8.80;99.90;;;;;;5014177;28;20021;-67
2022/11/27 04:57:36;;;;;;;59.55;44.13;;;8.80;99.90;;;;;;5014247;28;20022;-67
2022/11/27 05:00:03;;;;;;;75.35;54.38;;;8.80;99.90;;;;;;5014106;28;20160;-66
2022/11/27 05:02:29;;;;;;;77.00;57.03;;;8.80;99.90;;;;;;5014299;28;20041;-63
2022/11/27 05:04:55;;;;;;;82.90;59.63;;;8.70;99.90;;;;;;5014177;28;20018;-65
2022/11/27 05:07:21;;;;;;;78.30;56.88;;;8.60;99.90;;;;;;5014142;28;20030;-65
2022/11/27 05:09:46;;;;;;;84.53;61.08;;;8.50;99.90;;;;;;5014304;28;20026;-62
2022/11/27 05:12:12;;;;;;;77.80;56.00;;;8.50;99.90;;;;;;5013854;28;20025;-67
2022/11/27 05:14:38;;;;;;;76.00;55.00;;;8.50;99.90;;;;;;5013908;28;20061;-68
2022/11/27 05:17:03;;;;;;;102.20;73.25;;;8.50;99.90;;;;;;5013967;28;20025;-65
2022/11/27 05:19:30;;;;;;;105.85;77.65;;;8.40;99.90;;;;;;5013209;28;20119;-67
2022/11/27 05:21:56;;;;;;;99.93;70.50;;;8.40;99.90;;;;;;5013599;28;20022;-63
2022/11/27 05:24:24;;;;;;;74.95;55.63;;;8.40;99.90;;;;;;5014155;28;20068;-68
2022/11/27 05:26:50;;;;;;;76.18;56.22;;;8.40;99.90;;;;;;5014107;28;20415;-65
2022/11/27 05:29:16;;;;;;;61.28;48.95;;;8.50;99.90;;;;;;5013851;28;20026;-68
2022/11/27 05:31:42;;;;;;;66.65;49.55;;;8.60;99.90;;;;;;5013749;28;20018;-67
2022/11/27 05:34:08;;;;;;;65.72;48.03;;;8.60;99.90;;;;;;5013874;28;20022;-63
2022/11/27 05:36:35;;;;;;;53.80;43.45;;;8.70;99.90;;;;;;5013787;28;20022;-66
2022/11/27 05:39:02;;;;;;;63.30;44.53;;;8.80;99.90;;;;;;5013968;28;20026;-67
2022/11/27 05:41:28;;;;;;;74.85;54.13;;;8.80;99.90;;;;;;5013793;28;20022;-68
2022/11/27 05:43:54;;;;;;;103.97;73.40;;;8.80;99.90;;;;;;5013449;28;20038;-67
2022/11/27 05:46:21;;;;;;;85.57;61.63;;;8.70;99.90;;;;;;5013597;28;20084;-67
2022/11/27 05:48:48;;;;;;;66.15;50.53;;;8.70;99.90;;;;;;5013521;28;20022;-64
2022/11/27 05:51:14;;;;;;;85.72;60.20;;;8.70;99.90;;;;;;5013481;28;20033;-64
2022/11/27 05:53:40;;;;;;;106.15;75.38;;;8.80;99.90;;;;;;5013754;28;20030;-65
2022/11/27 05:56:11;;;;;;;102.10;71.53;;;8.70;99.90;;;;;;5013586;28;20404;-67
2022/11/27 05:58:38;;;;;;;86.63;61.90;;;8.70;99.90;;;;;;5013380;28;20460;-67
2022/11/27 06:01:05;;;;;;;71.45;52.70;;;8.70;99.90;;;;;;5013407;28;20022;-68
2022/11/27 06:03:32;;;;;;;66.63;49.58;;;8.70;99.90;;;;;;5013558;28;20425;-64
2022/11/27 06:05:57;;;;;;;59.17;46.75;;;8.70;99.90;;;;;;5013346;28;20053;-63
2022/11/27 06:08:23;;;;;;;57.58;44.67;;;8.80;99.90;;;;;;5013332;28;20068;-68
2022/11/27 06:10:49;;;;;;;54.20;43.72;;;8.90;99.90;;;;;;5013657;28;20053;-68
2022/11/27 06:13:15;;;;;;;65.60;46.47;;;8.90;99.90;;;;;;5013087;28;20124;-64
2022/11/27 06:15:41;;;;;;;58.47;45.05;;;8.90;99.90;;;;;;5013198;28;20550;-61
2022/11/27 06:18:08;;;;;;;48.40;38.50;;;9.00;99.90;;;;;;5013659;28;20026;-65
2022/11/27 06:20:34;;;;;;;49.03;38.90;;;9.00;99.90;;;;;;5013036;28;20050;-66
2022/11/27 06:23:00;;;;;;;56.70;43.35;;;8.90;99.90;;;;;;5013165;28;20018;-63
2022/11/27 06:25:25;;;;;;;53.22;40.97;;;8.90;99.90;;;;;;5013244;28;20032;-64
2022/11/27 06:27:52;;;;;;;48.00;38.33;;;9.00;99.90;;;;;;5013030;28;20097;-71
2022/11/27 06:30:17;;;;;;;48.65;37.95;;;9.00;99.90;;;;;;5013490;28;20433;-64
2022/11/27 06:32:43;;;;;;;57.28;41.88;;;9.00;99.90;;;;;;5016154;28;20117;-61
2022/11/27 06:35:09;;;;;;;49.45;38.35;;;9.00;99.90;;;;;;5016797;28;20026;-64
2022/11/27 06:37:35;;;;;;;52.70;40.03;;;9.00;99.90;;;;;;5016955;28;20034;-72
2022/11/27 06:40:01;;;;;;;42.08;34.08;;;9.00;99.90;;;;;;5016810;28;20041;-67
2022/11/27 06:42:29;;;;;;;41.50;34.22;;;9.00;99.90;;;;;;5016583;28;20049;-65
2022/11/27 06:44:55;;;;;;;44.00;32.50;;;9.00;99.90;;;;;;5016614;28;20026;-69
2022/11/27 06:47:21;;;;;;;37.10;30.42;;;9.00;99.90;;;;;;5016629;28;20495;-63
2022/11/27 06:49:46;;;;;;;36.45;29.75;;;9.10;99.90;;;;;;5016664;28;20017;-65
2022/11/27 06:52:12;;;;;;;42.08;33.95;;;9.10;99.90;;;;;;5016462;28;20108;-67
2022/11/27 06:54:38;;;;;;;38.53;32.50;;;9.20;99.90;;;;;;5016610;28;20026;-70
2022/11/27 06:57:03;;;;;;;41.83;33.90;;;9.20;99.90;;;;;;5016329;28;20504;-68
2022/11/27 06:59:29;;;;;;;44.38;34.67;;;9.20;99.90;;;;;;5016343;28;20018;-66
2022/11/27 07:01:55;;;;;;;40.28;33.20;;;9.30;99.90;;;;;;5016422;28;20022;-70
2022/11/27 07:04:21;;;;;;;57.42;45.10;;;9.20;99.90;;;;;;5016475;28;20491;-63
2022/11/27 07:06:46;;;;;;;65.97;51.95;;;9.30;99.90;;;;;;5016225;28;20026;-64
2022/11/27 07:09:12;;;;;;;55.40;43.00;;;9.20;99.90;;;;;;5016368;28;20434;-64
2022/11/27 07:11:38;;;;;;;53.97;42.17;;;9.10;99.90;;;;;;5016298;28;20420;-67
2022/11/27 07:14:05;;;;;;;41.70;36.60;;;9.00;99.90;;;;;;5016041;28;20034;-69
2022/11/27 07:16:33;;;;;;;42.47;34.65;;;9.00;99.90;;;;;;5016255;28;20397;-65
2022/11/27 07:19:01;;;;;;;36.88;31.70;;;9.00;99.90;;;;;;5016174;28;20026;-66
2022/11/27 07:21:27;;;;;;;45.25;34.33;;;9.00;99.90;;;;;;5015752;28;20522;-70
2022/11/27 07:23:55;;;;;;;41.90;33.80;;;9.10;99.90;;;;;;5015998;28;20066;-65
2022/11/27 07:26:23;;;;;;;42.83;34.83;;;9.10;99.90;;;;;;5015912;28;20034;-67
2022/11/27 07:28:50;;;;;;;41.83;33.17;;;9.10;99.90;;;;;;5015895;28;20049;-67
2022/11/27 07:31:21;;;;;;;39.90;33.08;;;9.20;99.90;;;;;;5015949;28;20384;-70
2022/11/27 07:33:47;;;;;;;43.20;32.75;;;9.20;99.90;;;;;;5015674;28;20502;-64
2022/11/27 07:36:16;;;;;;;52.38;39.58;;;9.20;99.90;;;;;;5015944;28;20018;-67
2022/11/27 07:38:43;;;;;;;35.13;29.80;;;9.20;99.90;;;;;;5015550;28;20018;-65
2022/11/27 07:41:09;;;;;;;46.17;37.33;;;9.20;99.90;;;;;;5015679;28;20079;-64
2022/11/27 07:43:35;;;;;;;34.72;30.20;;;9.20;99.90;;;;;;5015002;28;20030;-66
2022/11/27 07:46:06;;;;;;;38.33;31.35;;;9.20;99.90;;;;;;5015680;28;20029;-67
2022/11/27 07:48:32;;;;;;;37.08;30.40;;;9.30;99.90;;;;;;5015816;28;20022;-64
2022/11/27 07:50:58;;;;;;;37.67;30.48;;;9.30;99.90;;;;;;5015433;28;20102;-65
2022/11/27 07:53:24;;;;;;;34.50;29.48;;;9.30;99.90;;;;;;5015443;28;20544;-62
2022/11/27 07:55:49;;;;;;;40.88;33.17;;;9.40;99.90;;;;;;5015502;28;20362;-70
2022/11/27 07:58:15;;;;;;;46.90;37.53;;;9.40;99.90;;;;;;5047103;28;20018;-66
2022/11/27 08:00:41;;;;;;;38.15;32.72;;;9.50;99.90;;;;;;5015333;28;20029;-67
2022/11/27 08:03:08;;;;;;;41.10;33.58;;;9.50;99.90;;;;;;5015221;28;20152;-68
2022/11/27 08:05:34;;;;;;;42.47;33.55;;;9.50;99.90;;;;;;5015265;28;20488;-68
2022/11/27 08:08:03;;;;;;;48.67;35.95;;;9.60;99.90;;;;;;5014945;28;20022;-65
2022/11/27 08:10:29;;;;;;;43.10;35.97;;;9.60;99.90;;;;;;5015492;28;20416;-69
2022/11/27 08:12:57;;;;;;;42.58;36.17;;;9.70;99.90;;;;;;5015250;28;20398;-64
2022/11/27 08:15:22;;;;;;;267.45;91.45;;;9.70;99.90;;;;;;5015294;28;20493;-64
2022/11/27 08:17:48;;;;;;;160.43;72.78;;;9.60;99.90;;;;;;5015009;28;20072;-71
2022/11/27 08:20:14;;;;;;;115.03;61.13;;;9.60;99.90;;;;;;5014783;28;20404;-66
2022/11/27 08:22:40;;;;;;;91.80;54.85;;;9.60;99.90;;;;;;5014676;28;20026;-68
2022/11/27 08:25:06;;;;;;;70.50;47.28;;;9.70;99.90;;;;;;5014928;28;20025;-66
2022/11/27 08:27:32;;;;;;;61.83;42.70;;;9.80;99.90;;;;;;5015009;28;20026;-64
2022/11/27 08:29:58;;;;;;;51.45;37.97;;;9.80;99.90;;;;;;5014992;28;20033;-68
2022/11/27 08:32:24;;;;;;;55.40;43.08;;;9.80;99.90;;;;;;5014664;28;20033;-66
2022/11/27 08:34:50;;;;;;;44.33;37.03;;;9.80;99.90;;;;;;5014685;28;20034;-67
2022/11/27 08:37:15;;;;;;;40.80;34.22;;;9.70;99.90;;;;;;5014650;28;20052;-63
2022/11/27 08:39:41;;;;;;;37.03;30.48;;;9.70;99.90;;;;;;5014614;28;20076;-65
2022/11/27 08:42:07;;;;;;;35.30;28.80;;;9.70;99.90;;;;;;5014632;28;20026;-71
2022/11/27 08:44:32;;;;;;;28.23;24.77;;;9.70;99.90;;;;;;5014429;28;20045;-64
2022/11/27 08:46:58;;;;;;;29.35;24.60;;;9.70;99.90;;;;;;5014492;28;20420;-66
2022/11/27 08:49:24;;;;;;;27.30;24.08;;;9.70;99.90;;;;;;5014420;28;20104;-65
2022/11/27 08:51:49;;;;;;;28.17;22.90;;;9.70;99.90;;;;;;5014181;28;20026;-68
2022/11/27 08:54:15;;;;;;;25.35;21.13;;;9.70;99.90;;;;;;5014240;28;20022;-61
2022/11/27 08:56:41;;;;;;;42.75;34.85;;;9.80;99.90;;;;;;5014266;28;20026;-65
2022/11/27 08:59:06;;;;;;;36.75;29.77;;;9.90;99.90;;;;;;5014207;28;20034;-68
2022/11/27 09:01:32;;;;;;;34.55;29.45;;;9.80;99.90;;;;;;5014070;28;20030;-64
2022/11/27 09:03:58;;;;;;;29.90;25.63;;;9.80;99.90;;;;;;5014160;28;20037;-68
2022/11/27 09:06:27;;;;;;;29.67;25.17;;;9.90;99.90;;;;;;5014122;28;20384;-68
2022/11/27 09:08:55;;;;;;;26.60;23.08;;;10.00;99.90;;;;;;5014240;28;20022;-67
2022/11/27 09:11:21;;;;;;;24.40;21.75;;;10.20;99.90;;;;;;5014049;28;20022;-67
2022/11/27 09:13:47;;;;;;;22.77;19.55;;;10.30;99.90;;;;;;5013920;28;20040;-71
2022/11/27 09:16:15;;;;;;;23.55;20.70;;;10.40;99.90;;;;;;5014041;28;20018;-65
2022/11/27 09:18:43;;;;;;;25.65;21.15;;;10.40;99.90;;;;;;5013970;28;20026;-67
2022/11/27 09:21:12;;;;;;;31.73;27.00;;;10.40;99.90;;;;;;5013579;28;20069;-67
2022/11/27 09:23:39;;;;;;;31.52;25.73;;;10.40;99.90;;;;;;5013748;28;20053;-70
2022/11/27 09:26:11;;;;;;;32.53;28.08;;;10.30;99.90;;;;;;5013936;28;20084;-68
2022/11/27 09:28:37;;;;;;;35.70;29.25;;;10.30;99.90;;;;;;5013755;28;20030;-68
2022/11/27 09:31:05;;;;;;;35.33;31.05;;;10.20;99.90;;;;;;5013682;28;20095;-65
2022/11/27 09:33:33;;;;;;;26.02;23.23;;;10.10;99.90;;;;;;5013953;28;20029;-64
2022/11/27 09:36:09;;;;;;;27.70;23.25;;;10.20;99.90;;;;;;5013588;28;20014;-65
2022/11/27 09:38:36;;;;;;;23.20;20.73;;;10.30;99.90;;;;;;5013786;28;20484;-66
2022/11/27 09:41:10;;;;;;;24.38;20.83;;;10.40;99.90;;;;;;5013685;28;20022;-71
2022/11/27 09:43:47;;;;;;;22.27;19.98;;;10.40;99.90;;;;;;5013578;28;20455;-66
2022/11/27 09:46:20;;;;;;;20.73;18.30;;;10.50;99.90;;;;;;5013730;28;20018;-69
2022/11/27 09:48:47;;;;;;;;;;;10.60;99.90;;;;;;5014021;28;20029;-67
2022/11/27 09:51:28;;;;;;;30.05;24.80;;;10.60;99.90;;;;;;5013444;28;20000;-63
2022/11/27 09:54:16;;;;;;;30.63;25.83;;;10.60;99.90;;;;;;5013491;28;20042;-65
2022/11/27 09:56:46;;;;;;;29.00;24.10;;;10.70;99.90;;;;;;5012696;28;20038;-70
2022/11/27 09:59:17;;;;;;;31.58;25.58;;;10.70;99.90;;;;;;5013866;28;20026;-66
2022/11/27 10:01:44;;;;;;;29.98;26.02;;;10.80;99.90;;;;;;5013354;28;20060;-69
2022/11/27 10:04:12;;;;;;;33.80;28.30;;;10.90;99.90;;;;;;5013188;28;20121;-68
2022/11/27 10:06:47;;;;;;;32.90;28.65;;;10.80;99.90;;;;;;5014569;28;20022;-67
2022/11/27 10:09:37;;;;;;;33.75;29.58;;;10.50;99.90;;;;;;5017544;28;20101;-65
2022/11/27 10:12:17;;;;;;;32.60;26.80;;;10.40;99.90;;;;;;5017180;28;20385;-67
2022/11/27 10:14:49;;;;;;;30.30;26.30;;;10.40;99.90;;;;;;5017422;28;20101;-65
2022/11/27 10:17:24;;;;;;;30.88;26.13;;;10.50;99.90;;;;;;5017134;28;20018;-70
2022/11/27 10:20:08;;;;;;;33.58;28.63;;;10.70;99.90;;;;;;5016791;28;20503;-64
2022/11/27 10:22:59;;;;;;;55.15;41.53;;;10.80;99.90;;;;;;5017090;28;20042;-66
2022/11/27 10:25:35;;;;;;;37.15;29.58;;;10.70;99.90;;;;;;5017229;28;20144;-66
2022/11/27 10:28:29;;;;;;;33.55;29.27;;;10.70;99.90;;;;;;5016968;28;20026;-63
2022/11/27 10:31:02;;;;;;;41.20;32.30;;;10.70;99.90;;;;;;5016797;28;20026;-63
2022/11/27 10:33:49;;;;;;;;;;;10.80;99.90;;;;;;5017132;28;20427;-64
2022/11/27 10:36:20;;;;;;;38.42;30.85;;;10.80;99.90;;;;;;5016898;28;19905;-71
2022/11/27 10:38:47;;;;;;;29.15;25.77;;;10.80;99.90;;;;;;5016819;28;20072;-70
2022/11/27 10:41:20;;;;;;;30.27;25.85;;;10.90;99.90;;;;;;5016773;28;20408;-67
2022/11/27 10:43:49;;;;;;;24.55;21.90;;;10.90;99.90;;;;;;5016852;28;20029;-63
2022/11/27 10:46:24;;;;;;;25.52;22.10;;;11.00;99.90;;;;;;5016825;28;20038;-67
2022/11/27 10:48:50;;;;;;;29.23;25.20;;;11.10;99.90;;;;;;5016467;28;20053;-68
2022/11/27 10:51:29;;;;;;;30.80;26.73;;;11.00;99.90;;;;;;5016589;28;20018;-68
2022/11/27 10:53:58;;;;;;;28.17;24.17;;;10.90;99.90;;;;;;5016499;28;20037;-64
2022/11/27 10:56:59;;;;;;;29.55;24.73;;;10.90;99.90;;;;;;5016748;28;20025;-67
2022/11/27 10:59:30;;;;;;;26.85;21.42;;;11.00;99.90;;;;;;5016363;28;20092;-65
2022/11/27 11:01:57;;;;;;;23.45;20.27;;;11.10;99.90;;;;;;5016151;28;20026;-67
2022/11/27 11:04:29;;;;;;;31.30;25.33;;;11.30;99.90;;;;;;5016638;28;20034;-66
2022/11/27 11:06:56;;;;;;;25.63;21.27;;;11.40;99.90;;;;;;5016812;28;20395;-67
2022/11/27 11:09:26;;;;;;;25.48;21.10;;;11.40;99.90;;;;;;5016275;28;20018;-63
2022/11/27 11:11:51;;;;;;;28.23;22.38;;;11.40;99.90;;;;;;5016514;28;20029;-66
2022/11/27 11:14:25;;;;;;;24.58;21.17;;;11.50;99.90;;;;;;5016101;28;20042;-69
2022/11/27 11:16:52;;;;;;;;;;;11.60;99.90;;;;;;5016559;28;20022;-67
2022/11/27 11:19:31;;;;;;;24.40;21.75;;;11.70;99.90;;;;;;5014594;28;19912;-63
2022/11/27 11:21:59;;;;;;;26.17;23.38;;;11.90;99.90;;;;;;5016318;28;20033;-62
2022/11/27 11:24:31;;;;;;;33.97;26.63;;;11.90;99.90;;;;;;5016086;28;20022;-69
2022/11/27 11:27:13;;;;;;;29.30;23.33;;;11.80;99.90;;;;;;5016104;28;20490;-69
2022/11/27 11:30:05;;;;;;;25.45;22.75;;;11.70;99.90;;;;;;5015800;28;20022;-66
2022/11/27 11:32:39;;;;;;;26.25;22.02;;;11.70;99.90;;;;;;5015783;28;20115;-69
2022/11/27 11:35:23;;;;;;;26.75;22.63;;;11.80;99.90;;;;;;5015737;28;20041;-67
2022/11/27 11:37:53;;;;;;;24.80;20.13;;;11.80;99.90;;;;;;5043535;28;20018;-65
2022/11/27 11:40:25;;;;;;;24.27;20.17;;;11.70;99.90;;;;;;5014711;28;20045;-67
2022/11/27 11:43:00;;;;;;;18.83;16.70;;;11.70;99.90;;;;;;5015642;28;20080;-69
2022/11/27 11:45:28;;;;;;;20.52;18.23;;;11.60;99.90;;;;;;5015484;28;20545;-71
2022/11/27 11:48:03;;;;;;;19.10;17.05;;;11.50;99.90;;;;;;5014403;28;20082;-70
2022/11/27 11:51:09;;;;;;;16.90;15.18;;;11.40;99.90;;;;;;5013493;28;20117;-72
2022/11/27 11:53:44;;;;;;;17.92;15.27;;;11.30;99.90;;;;;;5030823;28;20052;-65
2022/11/27 11:56:12;;;;;;;28.60;23.02;;;11.30;99.90;;;;;;5016319;28;20056;-66
2022/11/27 11:58:53;;;;;;;24.00;18.80;;;11.30;99.90;;;;;;5014792;28;20028;-66
2022/11/27 12:01:42;;;;;;;42.00;30.65;;;11.30;99.90;;;;;;5014480;28;20021;-64
2022/11/27 12:04:30;;;;;;;39.78;29.80;;;11.40;99.90;;;;;;5015055;28;20026;-65
2022/11/27 12:07:34;;;;;;;42.83;31.95;;;11.50;99.90;;;;;;5015186;28;20060;-64
2022/11/27 12:10:07;;;;;;;47.35;37.85;;;11.50;99.90;;;;;;5032845;28;20385;-65
2022/11/27 12:12:57;;;;;;;47.88;36.75;;;11.60;99.90;;;;;;5032828;28;20446;-63
2022/11/27 12:15:55;;;;;;;42.22;32.53;;;11.60;99.90;;;;;;5020627;28;20476;-65
2022/11/27 12:18:32;;;;;;;35.78;28.23;;;11.60;99.90;;;;;;5014883;28;20423;-61
2022/11/27 12:21:17;;;;;;;34.38;26.63;;;11.70;99.90;;;;;;5013953;28;20045;-70
2022/11/27 12:24:14;;;;;;;32.03;24.35;;;11.70;99.90;;;;;;5015165;28;20034;-67
2022/11/27 12:27:01;;;;;;;29.17;22.95;;;11.80;99.90;;;;;;5021383;28;20029;-66
2022/11/27 12:29:34;;;;;;;34.47;26.00;;;11.80;99.90;;;;;;5014385;28;20423;-62
2022/11/27 12:32:00;;;;;;;29.50;21.98;;;11.80;99.90;;;;;;5013441;28;20365;-69
2022/11/27 12:34:57;;;;;;;26.83;21.13;;;11.70;99.90;;;;;;5014760;28;20075;-70
2022/11/27 12:37:39;;;;;;;22.88;18.95;;;11.70;99.90;;;;;;5014644;28;20073;-65
2022/11/27 12:40:22;;;;;;;23.75;18.17;;;11.70;99.90;;;;;;5014626;28;20104;-62
2022/11/27 12:43:04;;;;;;;19.75;16.52;;;11.70;99.90;;;;;;5014626;28;20029;-61
2022/11/27 12:45:33;;;;;;;22.05;18.55;;;11.80;99.90;;;;;;5014381;28;20030;-67
2022/11/27 12:48:11;;;;;;;30.55;22.80;;;11.90;99.90;;;;;;5014395;28;20032;-66
2022/11/27 12:50:42;;;;;;;30.27;23.30;;;12.00;99.90;;;;;;5014509;28;20025;-68
2022/11/27 12:53:17;;;;;;;24.67;20.77;;;11.90;99.90;;;;;;5014266;28;20035;-67
2022/11/27 12:56:07;;;;;;;24.02;20.33;;;11.90;99.90;;;;;;5014648;28;20357;-63